الصفحة الرئيسية
METAR-TAF:

METAR-TAF

مطار :

مطار أقنار - حاج باي أخاموك

تمنراست, الجزائر

دائرة عرض: 22-49N, خط طول: 005-28E, ارتفاع: 1377 متر

مراقبة الطقس الحالي

تاريخ ووقت الإصدار 22 دقيقة قبل الساعة 08:00UTC
ريح 14 عقدة من الشرق/الجنوب الشرقي
درجة الحرارة 26°درجة مئوية
ضغط 1021 hPa
الرؤية 10 كم أو أكثر
الغيوم لا تقل 1500 م ولا وجود لمزنة ركامية السحاب الأسود

METAR: DAAT 190800Z 11014KT CAVOK 26/// Q1021

زمن: 09:22 (08:22 UTC)

توقعات

تاريخ ووقت الإصدار 3ساعات و 22 دقيقة قبل الساعة 05:00UTC
التوقعات صالحة من19 الساعة 06 UTC إلى 20 الساعة 06 UTC
ريح 10 عقدة من الشرق
الرؤية 10 كم أو أكثر
الغيوم لا تقل 1500 م ولا وجود لمزنة ركامية السحاب الأسود
أصبح
من 19 الساعة 08 UTC إلى 19 الساعة 11 UTC
ريح 14 عقدة من الجنوب/الجنوب الغربي
أصبح
بين 19 و 20 UTC
ريح 10 عقدة من الشرق

TAF: DAAT 190500Z 1906/2006 08010KT CAVOK BECMG 1908/1911 20014KT BECMG 19201923 08010KT

أرصاد الطقس والتوقعات من أكثر من 4000 مطار (تقارير الطقس للمطار METAR والتنبؤ بالطقس بالمطارTAF).

المحطات المتاحة هي النقط الصفراء والحمراء على الخريطة.

حرك المؤشر فوق النقطة لمعرفة اسم المحطة.

ثم انقر لمعرفة أرصاد وتوقعات الطقس.

لتغيير الخارطة: اضغط على الأزرار الخضراء مع رمز الصليب الأسود للتكبير. على الزر الأخضر مع شرطة للتصغير، أو على الأسهم الخضراء للخرائط المجاورة.


METAR-TAF: